Bachir Chihani — 7TJA — position and weather

sailwx.info

Track history (hours):
 
Tides and Currents Weather Stations Pressure Air Temp Water Temp Dewpoint Dewpoint Depression Visibility Wind Speed Wind Dir Waves Ship Positions

Bachir Chihani

Last reported at 2014-Jul-22 19:28 UTC. Time now 2014-Jul-22 19:37 UTC.
Position N 39°13' E 025°44'.

Length 280 m; draft 11.1 m.

Type: Ship (hazmat cat C). MMSI: 605106010.

Date/timePositionNaut miles runAvg speedWind from/ knotsBaromVisibWave heightAir tempDewpointWater temp
2014-Jul-22 19:28N 39°13' E 025°44'9 8.9
2014-Jul-22 18:30N 39°04' E 025°44'9 9.1
2014-Jul-22 17:29N 38°55' E 025°44'8 8.8
2014-Jul-22 16:33N 38°47' E 025°44'9 8.7
2014-Jul-22 15:34N 38°38' E 025°44'9 8.6
2014-Jul-22 14:32N 38°29' E 025°44'9 8.6
2014-Jul-22 13:31N 38°21' E 025°44'9 9.2
2014-Jul-22 12:33N 38°12' E 025°43'9 9.4
2014-Jul-22 11:33N 38°02' E 025°44'11 9.3
2014-Jul-22 10:19N 37°51' E 025°44'8 9.0
2014-Jul-22 09:27N 37°43' E 025°44'8 9.0
2014-Jul-22 08:33N 37°35' E 025°44'1010.1
2014-Jul-22 07:33N 37°25' E 025°44'8 8.3
2014-Jul-22 06:32N 37°20' E 025°35'1010.5
2014-Jul-22 05:34N 37°18' E 025°22'1010.3
2014-Jul-22 04:33N 37°17' E 025°09'1010.3
2014-Jul-22 03:33N 37°15' E 024°56'1110.8
2014-Jul-22 02:33N 37°10' E 024°45'1110.8
2014-Jul-22 01:32N 37°04' E 024°33'1010.6
2014-Jul-22 00:33N 36°59' E 024°22'1010.5
2014-Jul-21 23:34N 36°53' E 024°11'1110.8
2014-Jul-21 22:33N 36°47' E 023°60'1210.9
2014-Jul-21 21:29N 36°38' E 023°50'1011.0
2014-Jul-21 20:33N 36°31' E 023°41'310.9
2014-Jul-21 20:15N 36°28' E 023°38'1210.6
2014-Jul-21 19:05N 36°19' E 023°28'39011.0
2014-Jul-20 07:33N 36°22' E 015°23'1712.1
2014-Jul-20 06:10N 36°23' E 015°03'812.5
2014-Jul-20 05:31N 36°25' E 014°53'1212.7
2014-Jul-20 04:34N 36°27' E 014°38'1212.4
2014-Jul-20 03:33N 36°29' E 014°23'1212.1
2014-Jul-20 02:34N 36°31' E 014°08'1212.3
2014-Jul-20 01:33N 36°33' E 013°53'1212.2
2014-Jul-20 00:33N 36°35' E 013°38'1212.0
2014-Jul-19 23:33N 36°37' E 013°23'1212.5
2014-Jul-19 22:33N 36°39' E 013°08'1313.2
2014-Jul-19 21:34N 36°41' E 012°51'1212.5
2014-Jul-19 20:34N 36°45' E 012°36'1212.4
2014-Jul-19 19:33N 36°51' E 012°23'1212.4
2014-Jul-19 18:33N 36°57' E 012°09'1212.3
2014-Jul-19 17:33N 37°03' E 011°56'1212.4
2014-Jul-19 16:33N 37°08' E 011°42'1212.2
2014-Jul-19 15:33N 37°14' E 011°29'17911.7
2014-Jul-19 00:14N 37°18' E 007°44'4611.9
2014-Jul-18 20:21N 37°18' E 006°46'3211.0
2014-Jul-18 17:27N 37°16' E 006°06'1010.8
2014-Jul-18 16:33N 37°15' E 005°54'1111.1
2014-Jul-18 15:33N 37°14' E 005°40'1311.4
2014-Jul-18 14:26N 37°12' E 005°24'1111.8
2014-Jul-18 13:33N 37°11' E 005°11'1212.0
2014-Jul-18 12:33N 37°10' E 004°56'1212.1
2014-Jul-18 11:33N 37°09' E 004°41'1212.3
2014-Jul-18 10:34N 37°08' E 004°26'1212.1
2014-Jul-18 09:32N 37°06' E 004°11'1211.9
2014-Jul-18 08:33N 37°05' E 003°56'1211.7
2014-Jul-18 07:33N 37°04' E 003°42'1211.9
2014-Jul-18 06:33N 37°03' E 003°27'1212.3
2014-Jul-18 05:33N 37°01' E 003°11'1312.5
2014-Jul-18 04:33N 36°60' E 002°56'1312.6
2014-Jul-18 03:33N 36°58' E 002°40'1312.5
2014-Jul-18 02:33N 36°56' E 002°25'1412.6
2014-Jul-18 01:27N 36°53' E 002°08'1112.6
2014-Jul-18 00:33N 36°51' E 001°54'1212.1
2014-Jul-17 23:33N 36°48' E 001°39'1212.0
2014-Jul-17 22:33N 36°45' E 001°24'3411.2
2014-Jul-17 19:32N 36°34' E 000°45'1010.1
2014-Jul-17 18:33N 36°29' E 000°34'1210.5
2014-Jul-17 17:24N 36°22' E 000°22'1310.9
2014-Jul-17 16:14N 36°16' E 000°08'710.8
2014-Jul-17 15:33N 36°12' E 000°00'1610.9
2014-Jul-17 14:04N 35°57' W 000°07'10 5.3
2014-Jul-17 12:11N 35°49' W 000°15'0 0.0
2014-Jul-17 10:27N 35°49' W 000°15'0 0.0
2014-Jul-17 09:29N 35°49' W 000°15'0 0.0
2014-Jul-17 04:32N 35°49' W 000°15'0 0.0
2014-Jul-16 20:20N 35°49' W 000°15'0 0.0
2014-Jul-16 19:21N 35°49' W 000°15'0 0.0
2014-Jul-16 18:33N 35°49' W 000°15'0 0.0
2014-Jul-16 17:33N 35°49' W 000°15'0 0.0
2014-Jul-16 16:31N 35°49' W 000°15'0 0.0
2014-Jul-16 15:33N 35°49' W 000°15'0 0.0
2014-Jul-16 14:04N 35°49' W 000°15'0 0.0
2014-Jul-16 13:33N 35°49' W 000°15'0 0.0
2014-Jul-16 12:30N 35°49' W 000°15'0 0.0
2014-Jul-16 11:15N 35°49' W 000°15'0 0.0
2014-Jul-16 06:29N 35°49' W 000°15'0 0.0
2014-Jul-16 05:33N 35°49' W 000°15'0 0.0
2014-Jul-16 04:33N 35°49' W 000°15'0 0.0
2014-Jul-16 02:22N 35°49' W 000°15'0 0.0
2014-Jul-16 01:32N 35°49' W 000°15'0 0.0
2014-Jul-16 00:33N 35°49' W 000°15'0 0.0
2014-Jul-15 22:30N 35°49' W 000°15'0 0.0
2014-Jul-15 21:31N 35°49' W 000°15'0 0.0
2014-Jul-15 20:26N 35°49' W 000°15'0 0.0
2014-Jul-15 19:31N 35°49' W 000°15'0 0.0
2014-Jul-15 18:33N 35°49' W 000°15'0 0.0
2014-Jul-15 17:33N 35°49' W 000°15'0 0.0
2014-Jul-15 14:17N 35°49' W 000°15'0 0.0
2014-Jul-15 13:33N 35°49' W 000°15'0 0.0
2014-Jul-15 12:33N 35°49' W 000°15'0 0.0
2014-Jul-15 11:33N 35°49' W 000°15'2 1.6
2014-Jul-15 10:34N 35°50' W 000°13'2 1.6
2014-Jul-15 09:33N 35°51' W 000°13'0 0.3
2014-Jul-15 08:33N 35°52' W 000°13'2 0.6
2014-Jul-15 04:18N 35°53' W 000°10'1 0.8
2014-Jul-15 03:33N 35°53' W 000°10'1 0.8
2014-Jul-15 02:19N 35°54' W 000°09'2 0.7
2014-Jul-14 23:12N 35°56' W 000°07'1 0.9
2014-Jul-14 22:33N 35°56' W 000°07'1 0.9
2014-Jul-14 21:29N 35°57' W 000°07'2 1.6
2014-Jul-14 20:29N 35°56' W 000°07'1 0.9
2014-Jul-14 19:33N 35°55' W 000°07'3 1.6
2014-Jul-14 17:29N 35°53' W 000°11'2 0.9
2014-Jul-14 15:28N 35°54' W 000°09'1 0.9
2014-Jul-14 14:32N 35°55' W 000°08'7 1.2
2014-Jul-14 09:14N 36°00' W 000°12'1 0.8
2014-Jul-14 08:33N 36°00' W 000°12'0 0.1
2014-Jul-14 07:25N 36°00' W 000°12'1 0.2
2014-Jul-14 02:25N 35°59' W 000°12'0 0.2
2014-Jul-14 01:33N 35°59' W 000°12'1 0.4
2014-Jul-14 00:08N 35°59' W 000°11'0 0.6
2014-Jul-13 23:33N 35°59' W 000°11'3 1.7
2014-Jul-13 21:31N 35°58' W 000°07'1 0.6
2014-Jul-13 19:32N 35°59' W 000°05'4 1.1
2014-Jul-13 15:23N 35°56' W 000°10'2 1.6
2014-Jul-13 14:05N 35°55' W 000°12'1 2.1
2014-Jul-13 13:33N 35°54' W 000°13'1 0.4
2014-Jul-13 11:33N 35°55' W 000°12'1 0.5
2014-Jul-13 10:33N 35°55' W 000°12'  
Track history (hours):
 
Tides and Currents Weather Stations Pressure Air Temp Water Temp Dewpoint Dewpoint Depression Visibility Wind Speed Wind Dir Waves Ship Positions

Bachir Chihani

Last reported at 2014-Jul-22 19:28 UTC. Time now 2014-Jul-22 19:37 UTC.
Position N 39°13' E 025°44'.

Length 280 m; draft 11.1 m.

Type: Ship (hazmat cat C). MMSI: 605106010.

Date/timePositionNaut miles runAvg speedWind from/ knotsBaromVisibWave heightAir tempDewpointWater temp
2014-Jul-22 19:28N 39°13' E 025°44'9 8.9
2014-Jul-22 18:30N 39°04' E 025°44'9 9.1
2014-Jul-22 17:29N 38°55' E 025°44'8 8.8
2014-Jul-22 16:33N 38°47' E 025°44'9 8.7
2014-Jul-22 15:34N 38°38' E 025°44'9 8.6
2014-Jul-22 14:32N 38°29' E 025°44'9 8.6
2014-Jul-22 13:31N 38°21' E 025°44'9 9.2
2014-Jul-22 12:33N 38°12' E 025°43'9 9.4
2014-Jul-22 11:33N 38°02' E 025°44'11 9.3
2014-Jul-22 10:19N 37°51' E 025°44'8 9.0
2014-Jul-22 09:27N 37°43' E 025°44'8 9.0
2014-Jul-22 08:33N 37°35' E 025°44'1010.1
2014-Jul-22 07:33N 37°25' E 025°44'8 8.3
2014-Jul-22 06:32N 37°20' E 025°35'1010.5
2014-Jul-22 05:34N 37°18' E 025°22'1010.3
2014-Jul-22 04:33N 37°17' E 025°09'1010.3
2014-Jul-22 03:33N 37°15' E 024°56'1110.8
2014-Jul-22 02:33N 37°10' E 024°45'1110.8
2014-Jul-22 01:32N 37°04' E 024°33'1010.6
2014-Jul-22 00:33N 36°59' E 024°22'1010.5
2014-Jul-21 23:34N 36°53' E 024°11'1110.8
2014-Jul-21 22:33N 36°47' E 023°60'1210.9
2014-Jul-21 21:29N 36°38' E 023°50'1011.0
2014-Jul-21 20:33N 36°31' E 023°41'310.9
2014-Jul-21 20:15N 36°28' E 023°38'1210.6
2014-Jul-21 19:05N 36°19' E 023°28'39011.0
2014-Jul-20 07:33N 36°22' E 015°23'1712.1
2014-Jul-20 06:10N 36°23' E 015°03'812.5
2014-Jul-20 05:31N 36°25' E 014°53'1212.7
2014-Jul-20 04:34N 36°27' E 014°38'1212.4
2014-Jul-20 03:33N 36°29' E 014°23'1212.1
2014-Jul-20 02:34N 36°31' E 014°08'1212.3
2014-Jul-20 01:33N 36°33' E 013°53'1212.2
2014-Jul-20 00:33N 36°35' E 013°38'1212.0
2014-Jul-19 23:33N 36°37' E 013°23'1212.5
2014-Jul-19 22:33N 36°39' E 013°08'1313.2
2014-Jul-19 21:34N 36°41' E 012°51'1212.5
2014-Jul-19 20:34N 36°45' E 012°36'1212.4
2014-Jul-19 19:33N 36°51' E 012°23'1212.4
2014-Jul-19 18:33N 36°57' E 012°09'1212.3
2014-Jul-19 17:33N 37°03' E 011°56'1212.4
2014-Jul-19 16:33N 37°08' E 011°42'1212.2
2014-Jul-19 15:33N 37°14' E 011°29'17911.7
2014-Jul-19 00:14N 37°18' E 007°44'4611.9
2014-Jul-18 20:21N 37°18' E 006°46'3211.0
2014-Jul-18 17:27N 37°16' E 006°06'1010.8
2014-Jul-18 16:33N 37°15' E 005°54'1111.1
2014-Jul-18 15:33N 37°14' E 005°40'1311.4
2014-Jul-18 14:26N 37°12' E 005°24'1111.8
2014-Jul-18 13:33N 37°11' E 005°11'1212.0
2014-Jul-18 12:33N 37°10' E 004°56'1212.1
2014-Jul-18 11:33N 37°09' E 004°41'1212.3
2014-Jul-18 10:34N 37°08' E 004°26'1212.1
2014-Jul-18 09:32N 37°06' E 004°11'1211.9
2014-Jul-18 08:33N 37°05' E 003°56'1211.7
2014-Jul-18 07:33N 37°04' E 003°42'1211.9
2014-Jul-18 06:33N 37°03' E 003°27'1212.3
2014-Jul-18 05:33N 37°01' E 003°11'1312.5
2014-Jul-18 04:33N 36°60' E 002°56'1312.6
2014-Jul-18 03:33N 36°58' E 002°40'1312.5
2014-Jul-18 02:33N 36°56' E 002°25'1412.6
2014-Jul-18 01:27N 36°53' E 002°08'1112.6
2014-Jul-18 00:33N 36°51' E 001°54'1212.1
2014-Jul-17 23:33N 36°48' E 001°39'1212.0
2014-Jul-17 22:33N 36°45' E 001°24'3411.2
2014-Jul-17 19:32N 36°34' E 000°45'1010.1
2014-Jul-17 18:33N 36°29' E 000°34'1210.5
2014-Jul-17 17:24N 36°22' E 000°22'1310.9
2014-Jul-17 16:14N 36°16' E 000°08'710.8
2014-Jul-17 15:33N 36°12' E 000°00'1610.9
2014-Jul-17 14:04N 35°57' W 000°07'10 5.3
2014-Jul-17 12:11N 35°49' W 000°15'0 0.0
2014-Jul-17 10:27N 35°49' W 000°15'0 0.0
2014-Jul-17 09:29N 35°49' W 000°15'0 0.0
2014-Jul-17 04:32N 35°49' W 000°15'0 0.0
2014-Jul-16 20:20N 35°49' W 000°15'0 0.0
2014-Jul-16 19:21N 35°49' W 000°15'0 0.0
2014-Jul-16 18:33N 35°49' W 000°15'0 0.0
2014-Jul-16 17:33N 35°49' W 000°15'0 0.0
2014-Jul-16 16:31N 35°49' W 000°15'0 0.0
2014-Jul-16 15:33N 35°49' W 000°15'0 0.0
2014-Jul-16 14:04N 35°49' W 000°15'0 0.0
2014-Jul-16 13:33N 35°49' W 000°15'0 0.0
2014-Jul-16 12:30N 35°49' W 000°15'0 0.0
2014-Jul-16 11:15N 35°49' W 000°15'0 0.0
2014-Jul-16 06:29N 35°49' W 000°15'0 0.0
2014-Jul-16 05:33N 35°49' W 000°15'0 0.0
2014-Jul-16 04:33N 35°49' W 000°15'0 0.0
2014-Jul-16 02:22N 35°49' W 000°15'0 0.0
2014-Jul-16 01:32N 35°49' W 000°15'0 0.0
2014-Jul-16 00:33N 35°49' W 000°15'0 0.0
2014-Jul-15 22:30N 35°49' W 000°15'0 0.0
2014-Jul-15 21:31N 35°49' W 000°15'0 0.0
2014-Jul-15 20:26N 35°49' W 000°15'0 0.0
2014-Jul-15 19:31N 35°49' W 000°15'0 0.0
2014-Jul-15 18:33N 35°49' W 000°15'0 0.0
2014-Jul-15 17:33N 35°49' W 000°15'0 0.0
2014-Jul-15 14:17N 35°49' W 000°15'0 0.0
2014-Jul-15 13:33N 35°49' W 000°15'0 0.0
2014-Jul-15 12:33N 35°49' W 000°15'0 0.0
2014-Jul-15 11:33N 35°49' W 000°15'2 1.6
2014-Jul-15 10:34N 35°50' W 000°13'2 1.6
2014-Jul-15 09:33N 35°51' W 000°13'0 0.3
2014-Jul-15 08:33N 35°52' W 000°13'2 0.6
2014-Jul-15 04:18N 35°53' W 000°10'1 0.8
2014-Jul-15 03:33N 35°53' W 000°10'1 0.8
2014-Jul-15 02:19N 35°54' W 000°09'2 0.7
2014-Jul-14 23:12N 35°56' W 000°07'1 0.9
2014-Jul-14 22:33N 35°56' W 000°07'1 0.9
2014-Jul-14 21:29N 35°57' W 000°07'2 1.6
2014-Jul-14 20:29N 35°56' W 000°07'1 0.9
2014-Jul-14 19:33N 35°55' W 000°07'3 1.6
2014-Jul-14 17:29N 35°53' W 000°11'2 0.9
2014-Jul-14 15:28N 35°54' W 000°09'1 0.9
2014-Jul-14 14:32N 35°55' W 000°08'7 1.2
2014-Jul-14 09:14N 36°00' W 000°12'1 0.8
2014-Jul-14 08:33N 36°00' W 000°12'0 0.1
2014-Jul-14 07:25N 36°00' W 000°12'1 0.2
2014-Jul-14 02:25N 35°59' W 000°12'0 0.2
2014-Jul-14 01:33N 35°59' W 000°12'1 0.4
2014-Jul-14 00:08N 35°59' W 000°11'0 0.6
2014-Jul-13 23:33N 35°59' W 000°11'3 1.7
2014-Jul-13 21:31N 35°58' W 000°07'1 0.6
2014-Jul-13 19:32N 35°59' W 000°05'4 1.1
2014-Jul-13 15:23N 35°56' W 000°10'2 1.6
2014-Jul-13 14:05N 35°55' W 000°12'1 2.1
2014-Jul-13 13:33N 35°54' W 000°13'1 0.4
2014-Jul-13 11:33N 35°55' W 000°12'1 0.5
2014-Jul-13 10:33N 35°55' W 000°12'  

Dump ship's entire track history